Time;durP1;ratioP1;P1;durP2;ratioP2;P2;SDS_P1;SDS_P2;PMS_P1;PMS_P2;Temp;Humidity;BMP_temperature;BMP_pressure;BME280_temperature;BME280_humidity;BME280_pressure;Samples;Min_cycle;Max_cycle;Signal;HPM_P1;HPM_P2
2022/10/25 00:01:19;;;;;;;10.38;2.50;;;13.10;99.90;;;;;;5064985;28;20024;-74
2022/10/25 00:03:45;;;;;;;7.43;2.30;;;13.10;99.90;;;;;;5065378;28;20033;-73
2022/10/25 00:06:12;;;;;;;5.65;2.03;;;13.10;99.90;;;;;;5069920;28;20036;-73
2022/10/25 00:08:38;;;;;;;11.50;2.65;;;13.20;99.90;;;;;;5063224;28;20039;-73
2022/10/25 00:11:04;;;;;;;8.07;2.42;;;13.20;99.90;;;;;;5072119;28;20020;-74
2022/10/25 00:13:31;;;;;;;7.72;2.25;;;13.30;99.90;;;;;;5065268;28;20421;-74
2022/10/25 00:15:56;;;;;;;9.55;3.17;;;13.30;99.90;;;;;;5069590;28;20387;-74
2022/10/25 00:18:22;;;;;;;12.75;3.10;;;13.30;99.90;;;;;;5069214;28;20037;-74
2022/10/25 00:20:48;;;;;;;8.73;2.88;;;13.40;99.90;;;;;;5068311;28;20032;-74
2022/10/25 00:23:14;;;;;;;11.50;3.53;;;13.40;99.90;;;;;;5068322;28;20075;-74
2022/10/25 00:25:39;;;;;;;9.93;3.78;;;13.50;99.90;;;;;;5064728;28;20048;-74
2022/10/25 00:28:05;;;;;;;8.40;2.67;;;13.60;99.90;;;;;;5070499;28;20086;-74
2022/10/25 00:30:30;;;;;;;10.10;2.30;;;13.60;99.90;;;;;;5069605;28;20025;-74
2022/10/25 00:32:57;;;;;;;10.65;2.75;;;13.70;99.90;;;;;;5066723;28;20115;-74
2022/10/25 00:35:23;;;;;;;7.28;2.13;;;13.70;99.90;;;;;;5057907;28;20103;-74
2022/10/25 00:37:49;;;;;;;8.15;2.70;;;13.70;99.90;;;;;;5067317;28;20132;-73
2022/10/25 00:40:15;;;;;;;8.20;2.90;;;13.80;99.90;;;;;;5069139;28;20039;-74
2022/10/25 00:42:41;;;;;;;7.13;2.60;;;13.80;99.90;;;;;;5066124;28;20028;-74
2022/10/25 00:45:33;;;;;;;10.50;2.90;;;13.90;99.90;;;;;;5064845;28;20036;-75
2022/10/25 00:48:00;;;;;;;10.68;2.72;;;13.90;99.90;;;;;;5066886;28;20032;-75
2022/10/25 00:50:55;;;;;;;8.30;2.95;;;13.90;99.90;;;;;;5069560;28;20023;-74
2022/10/25 00:53:35;;;;;;;11.52;3.40;;;13.90;99.90;;;;;;5060874;28;20094;-74
2022/10/25 00:56:12;;;;;;;11.38;2.88;;;13.90;99.90;;;;;;5066290;28;20107;-74
2022/10/25 00:58:39;;;;;;;10.82;3.42;;;13.90;99.90;;;;;;5067268;28;20102;-73
2022/10/25 01:01:07;;;;;;;15.60;3.63;;;13.90;99.90;;;;;;5064863;28;20060;-75
2022/10/25 01:03:35;;;;;;;11.23;3.33;;;14.00;99.90;;;;;;5062471;28;20112;-73
2022/10/25 01:06:03;;;;;;;7.28;2.75;;;14.00;99.90;;;;;;5067691;28;20127;-74
2022/10/25 01:08:30;;;;;;;11.02;2.90;;;14.00;99.90;;;;;;5067477;28;20145;-73
2022/10/25 01:10:55;;;;;;;9.00;2.65;;;14.00;99.90;;;;;;5066885;28;20017;-74
2022/10/25 01:13:21;;;;;;;11.23;2.13;;;13.90;99.90;;;;;;5061774;28;20619;-73
2022/10/25 01:16:07;;;;;;;13.18;2.58;;;13.90;99.90;;;;;;5066305;28;20021;-74
2022/10/25 01:18:45;;;;;;;8.93;2.20;;;14.00;99.90;;;;;;5035437;28;20044;-74
2022/10/25 01:21:31;;;;;;;10.30;2.85;;;13.90;99.90;;;;;;5060753;28;20017;-74
2022/10/25 01:24:25;;;;;;;10.60;2.28;;;13.90;99.90;;;;;;5064944;28;20048;-74
2022/10/25 01:27:14;;;;;;;11.50;2.38;;;13.80;99.90;;;;;;5067671;28;20032;-73
2022/10/25 01:30:15;;;;;;;10.02;2.50;;;13.80;99.90;;;;;;5069165;28;20146;-74
2022/10/25 01:33:08;;;;;;;12.23;2.80;;;13.80;99.90;;;;;;5066570;28;20033;-74
2022/10/25 01:35:53;;;;;;;10.43;2.20;;;13.80;99.90;;;;;;5066777;28;20104;-74
2022/10/25 01:38:38;;;;;;;10.00;1.98;;;13.70;99.90;;;;;;5062554;28;20566;-74
2022/10/25 01:41:30;;;;;;;17.38;2.72;;;13.70;99.90;;;;;;5054740;28;20033;-75
2022/10/25 01:44:09;;;;;;;10.70;2.67;;;13.70;99.90;;;;;;5064279;28;20021;-75
2022/10/25 01:47:03;;;;;;;12.02;2.17;;;13.80;99.90;;;;;;5065674;28;20100;-75
2022/10/25 01:49:56;;;;;;;11.82;2.20;;;13.80;99.90;;;;;;5070488;28;20025;-75
2022/10/25 01:52:23;;;;;;;15.57;2.72;;;13.80;99.90;;;;;;5067685;28;20035;-75
2022/10/25 01:54:49;;;;;;;18.45;3.00;;;13.80;99.90;;;;;;5068701;28;20361;-74
2022/10/25 01:57:39;;;;;;;14.55;3.78;;;13.90;99.90;;;;;;5071713;28;20102;-74
2022/10/25 02:00:12;;;;;;;17.27;2.72;;;13.90;99.90;;;;;;5070700;28;20044;-74
2022/10/25 02:02:50;;;;;;;14.52;2.90;;;13.90;99.90;;;;;;5071288;28;20376;-74
2022/10/25 02:05:30;;;;;;;13.20;3.10;;;14.00;99.90;;;;;;5071792;28;20099;-75
2022/10/25 02:08:27;;;;;;;17.02;2.92;;;14.00;99.90;;;;;;5065903;28;20031;-74
2022/10/25 02:11:24;;;;;;;11.55;2.88;;;14.00;99.90;;;;;;5072409;28;20020;-74
2022/10/25 02:14:17;;;;;;;9.30;3.00;;;14.00;99.90;;;;;;5064131;28;20043;-74
2022/10/25 02:16:49;;;;;;;16.52;3.70;;;14.10;99.90;;;;;;5069891;28;20472;-74
2022/10/25 02:19:20;;;;;;;12.88;3.28;;;14.10;99.90;;;;;;5068857;28;20115;-74
2022/10/25 02:21:48;;;;;;;13.18;4.00;;;14.10;99.90;;;;;;5070027;28;20452;-75
2022/10/25 02:24:20;;;;;;;13.05;4.15;;;14.20;99.90;;;;;;5071152;28;20531;-73
2022/10/25 02:26:47;;;;;;;;;;;14.20;99.90;;;;;;5069924;28;20107;-75
2022/10/25 02:29:15;;;;;;;13.48;4.07;;;14.20;99.90;;;;;;5065066;28;19909;-74
2022/10/25 02:31:42;;;;;;;16.13;5.03;;;14.20;99.90;;;;;;5069093;28;20384;-73
2022/10/25 02:34:08;;;;;;;16.90;4.78;;;14.20;99.90;;;;;;5062353;28;20070;-74
2022/10/25 02:36:33;;;;;;;13.80;4.22;;;14.20;99.90;;;;;;5071383;28;20616;-74
2022/10/25 02:39:00;;;;;;;14.80;4.70;;;14.20;99.90;;;;;;5066910;28;20068;-74
2022/10/25 02:41:26;;;;;;;13.90;4.82;;;14.20;99.90;;;;;;5062116;28;20024;-74
2022/10/25 02:43:52;;;;;;;16.30;4.60;;;14.30;99.90;;;;;;5066595;28;20401;-74
2022/10/25 02:46:20;;;;;;;11.05;3.85;;;14.30;99.90;;;;;;5067996;28;20039;-74
2022/10/25 02:48:46;;;;;;;13.57;4.20;;;14.30;99.90;;;;;;5063191;28;20025;-74
2022/10/25 02:51:13;;;;;;;18.80;4.70;;;14.30;99.90;;;;;;5063797;28;20028;-74
2022/10/25 02:53:38;;;;;;;13.05;4.07;;;14.30;99.90;;;;;;5068353;28;20032;-75
2022/10/25 02:56:06;;;;;;;9.77;3.70;;;14.30;99.90;;;;;;5070389;28;20439;-74
2022/10/25 02:58:34;;;;;;;13.48;5.35;;;14.30;99.90;;;;;;5058141;28;20490;-74
2022/10/25 03:01:00;;;;;;;9.52;3.88;;;14.30;99.90;;;;;;5064679;28;20078;-74
2022/10/25 03:03:27;;;;;;;11.88;4.35;;;14.30;99.90;;;;;;5062688;28;20032;-73
2022/10/25 03:05:52;;;;;;;13.45;4.82;;;14.30;99.90;;;;;;5072741;28;20033;-73
2022/10/25 03:08:19;;;;;;;16.15;4.70;;;14.30;99.90;;;;;;5071570;28;20340;-74
2022/10/25 03:10:45;;;;;;;17.33;5.45;;;14.30;99.90;;;;;;5055079;28;20334;-74
2022/10/25 03:13:11;;;;;;;10.05;4.03;;;14.30;99.90;;;;;;5062708;28;20091;-73
2022/10/25 03:15:36;;;;;;;10.35;4.28;;;14.30;99.90;;;;;;5067718;28;20111;-74
2022/10/25 03:18:02;;;;;;;12.73;4.10;;;14.20;99.90;;;;;;5058836;28;20516;-73
2022/10/25 03:20:28;;;;;;;11.70;3.72;;;14.20;99.90;;;;;;5066236;28;20032;-74
2022/10/25 03:22:53;;;;;;;12.07;4.07;;;14.20;99.90;;;;;;5068234;28;20026;-73
2022/10/25 03:25:19;;;;;;;11.35;3.35;;;14.20;99.90;;;;;;5083427;28;20045;-74
2022/10/25 03:27:44;;;;;;;12.55;3.08;;;14.20;99.90;;;;;;5070303;28;20020;-74
2022/10/25 03:30:12;;;;;;;8.20;2.38;;;14.20;99.90;;;;;;5069307;28;20037;-74
2022/10/25 03:32:38;;;;;;;15.65;3.30;;;14.20;99.90;;;;;;5069471;28;20024;-74
2022/10/25 03:35:04;;;;;;;8.57;3.15;;;14.20;99.90;;;;;;5067632;28;20161;-74
2022/10/25 03:37:30;;;;;;;11.30;3.22;;;14.20;99.90;;;;;;5064598;28;20017;-74
2022/10/25 03:39:56;;;;;;;11.48;2.97;;;14.20;99.90;;;;;;5060368;28;20039;-74
2022/10/25 03:42:21;;;;;;;8.85;3.65;;;14.20;99.90;;;;;;5067477;28;20054;-74
2022/10/25 03:44:47;;;;;;;10.65;3.30;;;14.20;99.90;;;;;;5065974;28;20032;-75
2022/10/25 03:47:13;;;;;;;9.75;3.22;;;14.20;99.90;;;;;;5079838;28;20112;-75
2022/10/25 03:49:39;;;;;;;12.65;2.78;;;14.10;99.90;;;;;;5068673;28;20472;-74
2022/10/25 03:52:06;;;;;;;13.30;2.65;;;14.10;99.90;;;;;;5070696;28;20035;-74
2022/10/25 03:54:33;;;;;;;7.85;2.15;;;14.00;99.90;;;;;;5065392;28;20024;-74
2022/10/25 03:56:59;;;;;;;11.68;3.08;;;14.00;99.90;;;;;;5068831;28;20024;-74
2022/10/25 03:59:25;;;;;;;10.63;3.10;;;14.00;99.90;;;;;;5080496;28;20051;-75
2022/10/25 04:01:50;;;;;;;13.98;2.50;;;13.90;99.90;;;;;;5069425;28;20020;-74
2022/10/25 04:04:16;;;;;;;10.20;3.17;;;14.00;99.90;;;;;;5062883;28;20025;-74
2022/10/25 04:06:42;;;;;;;10.35;3.38;;;14.00;99.90;;;;;;5069377;28;20415;-75
2022/10/25 04:09:11;;;;;;;11.35;3.50;;;14.00;99.90;;;;;;5063868;28;20036;-73
2022/10/25 04:11:36;;;;;;;11.18;4.10;;;14.00;99.90;;;;;;5065114;28;20017;-73
2022/10/25 04:14:02;;;;;;;12.50;4.00;;;14.00;99.90;;;;;;5065252;28;20032;-73
2022/10/25 04:16:28;;;;;;;10.43;3.50;;;13.90;99.90;;;;;;5069454;28;20025;-73
2022/10/25 04:18:53;;;;;;;8.23;3.17;;;13.90;99.90;;;;;;5069281;28;20040;-74
2022/10/25 04:21:20;;;;;;;10.43;3.13;;;13.90;99.90;;;;;;5067368;28;20040;-74
2022/10/25 04:23:46;;;;;;;12.40;3.33;;;13.90;99.90;;;;;;5068243;28;20052;-73
2022/10/25 04:26:19;;;;;;;14.57;3.83;;;13.90;99.90;;;;;;5068642;28;20032;-74
2022/10/25 04:28:51;;;;;;;;;;;14.00;99.90;;;;;;5063996;28;20031;-73
2022/10/25 04:31:18;;;;;;;7.88;2.90;;;13.90;99.90;;;;;;5062294;28;19912;-74
2022/10/25 04:33:46;;;;;;;8.60;2.97;;;13.90;99.90;;;;;;5069057;28;20468;-73
2022/10/25 04:36:12;;;;;;;10.30;3.17;;;13.90;99.90;;;;;;5068640;28;20127;-74
2022/10/25 04:38:38;;;;;;;9.25;2.97;;;13.90;99.90;;;;;;5066969;28;20108;-75
2022/10/25 04:41:08;;;;;;;12.30;2.83;;;13.90;99.90;;;;;;5066230;28;20036;-75
2022/10/25 04:43:33;;;;;;;7.72;2.47;;;13.80;99.90;;;;;;5070293;28;20770;-74
2022/10/25 04:46:00;;;;;;;13.50;3.03;;;13.80;99.90;;;;;;5068889;28;20107;-74
2022/10/25 04:48:26;;;;;;;7.47;3.08;;;13.80;99.90;;;;;;5060613;28;20031;-75
2022/10/25 04:50:52;;;;;;;11.20;2.60;;;13.70;99.90;;;;;;5069789;28;20123;-75
2022/10/25 04:53:17;;;;;;;9.38;2.63;;;13.70;99.90;;;;;;5070566;28;20028;-74
2022/10/25 04:55:43;;;;;;;6.35;1.80;;;13.70;99.90;;;;;;5068710;28;20076;-74
2022/10/25 04:58:09;;;;;;;7.30;2.03;;;13.60;99.90;;;;;;5066646;28;20048;-74
2022/10/25 05:00:34;;;;;;;5.95;1.73;;;13.60;99.90;;;;;;5062138;28;20104;-73
2022/10/25 05:03:00;;;;;;;7.18;1.70;;;13.50;99.90;;;;;;5061180;28;20040;-74
2022/10/25 05:05:29;;;;;;;5.65;1.40;;;13.50;99.90;;;;;;5061741;28;20017;-74
2022/10/25 05:07:55;;;;;;;21.55;4.20;;;13.40;99.90;;;;;;5061572;28;20544;-73
2022/10/25 05:10:20;;;;;;;8.68;2.47;;;13.40;99.90;;;;;;5064683;28;20124;-72
2022/10/25 05:12:46;;;;;;;7.28;1.90;;;13.30;99.90;;;;;;5057728;28;20032;-72
2022/10/25 05:15:11;;;;;;;7.75;1.95;;;13.20;99.90;;;;;;5059695;28;20028;-74
2022/10/25 05:17:37;;;;;;;7.20;1.92;;;13.20;99.90;;;;;;5064149;28;20033;-73
2022/10/25 05:20:03;;;;;;;8.50;1.80;;;13.10;99.90;;;;;;5065161;28;20440;-74
2022/10/25 05:22:29;;;;;;;6.88;1.98;;;13.10;99.90;;;;;;5059292;28;20028;-73
2022/10/25 05:24:54;;;;;;;8.07;1.88;;;13.00;99.90;;;;;;5070751;28;20127;-73
2022/10/25 05:27:20;;;;;;;7.20;1.70;;;13.00;99.90;;;;;;5063829;28;20107;-73
2022/10/25 05:29:46;;;;;;;11.82;1.83;;;12.90;99.90;;;;;;5069065;28;20035;-73
2022/10/25 05:32:11;;;;;;;7.35;1.75;;;12.90;99.90;;;;;;5063550;28;20043;-73
2022/10/25 05:34:37;;;;;;;11.00;2.28;;;12.80;99.90;;;;;;5071441;28;20035;-73
2022/10/25 05:37:03;;;;;;;11.25;1.77;;;12.80;99.90;;;;;;5069815;28;20407;-74
2022/10/25 05:39:29;;;;;;;9.82;2.10;;;12.80;99.90;;;;;;5072550;28;20032;-74
2022/10/25 05:41:54;;;;;;;10.68;2.63;;;12.80;99.90;;;;;;5061059;28;20044;-73
2022/10/25 05:44:20;;;;;;;11.68;2.55;;;12.80;99.90;;;;;;5067677;28;20033;-73
2022/10/25 05:46:46;;;;;;;9.60;2.47;;;12.80;99.90;;;;;;5071886;28;20024;-73
2022/10/25 05:49:12;;;;;;;8.90;2.75;;;12.80;99.90;;;;;;5072244;28;20082;-73
2022/10/25 05:51:38;;;;;;;8.93;3.28;;;12.90;99.90;;;;;;5072442;28;20096;-73
2022/10/25 05:54:10;;;;;;;10.75;2.72;;;12.90;99.90;;;;;;5074465;28;20035;-74
2022/10/25 05:56:37;;;;;;;12.95;3.15;;;12.90;99.90;;;;;;5070571;28;20095;-73
2022/10/25 05:59:08;;;;;;;10.70;3.08;;;12.80;99.90;;;;;;5068714;28;20128;-74
2022/10/25 06:01:35;;;;;;;9.25;3.13;;;12.90;99.90;;;;;;5068509;28;20028;-73
2022/10/25 06:04:01;;;;;;;10.20;3.50;;;12.90;99.90;;;;;;5065938;28;20028;-73
2022/10/25 06:06:27;;;;;;;10.55;3.33;;;12.90;99.90;;;;;;5066938;28;20025;-74
2022/10/25 06:08:57;;;;;;;11.27;3.50;;;12.80;99.90;;;;;;5066853;28;20535;-73
2022/10/25 06:11:23;;;;;;;13.52;3.63;;;12.80;99.90;;;;;;5071214;28;20029;-74
2022/10/25 06:13:49;;;;;;;10.00;3.08;;;12.80;99.90;;;;;;5057942;28;20052;-73
2022/10/25 06:16:16;;;;;;;11.13;2.53;;;12.90;99.90;;;;;;5064004;28;20059;-74
2022/10/25 06:18:42;;;;;;;10.00;3.33;;;12.90;99.90;;;;;;5066646;28;20036;-74
2022/10/25 06:21:10;;;;;;;10.40;3.28;;;12.90;99.90;;;;;;5067872;28;20450;-73
2022/10/25 06:23:36;;;;;;;7.85;3.15;;;12.90;99.90;;;;;;5067827;28;20400;-74
2022/10/25 06:26:05;;;;;;;10.00;3.55;;;12.90;99.90;;;;;;5061504;28;20054;-74
2022/10/25 06:28:32;;;;;;;10.00;2.95;;;12.90;99.90;;;;;;5062656;28;20059;-74
2022/10/25 06:31:06;;;;;;;7.75;3.13;;;13.00;99.90;;;;;;5059081;28;20031;-73
2022/10/25 06:33:32;;;;;;;7.55;3.50;;;13.00;99.90;;;;;;5055663;28;20033;-74
2022/10/25 06:36:00;;;;;;;10.35;2.83;;;12.90;99.90;;;;;;5055773;28;20033;-73
2022/10/25 06:38:26;;;;;;;8.70;3.38;;;12.90;99.90;;;;;;5059347;28;20493;-74
2022/10/25 06:40:58;;;;;;;7.07;3.10;;;12.90;99.90;;;;;;5056212;28;20481;-74
2022/10/25 06:43:23;;;;;;;8.53;2.90;;;12.80;99.90;;;;;;5056266;28;20107;-74
2022/10/25 06:45:49;;;;;;;12.32;4.22;;;12.80;99.90;;;;;;5057436;28;20020;-74
2022/10/25 06:48:15;;;;;;;12.35;3.88;;;12.70;99.90;;;;;;5055945;28;20082;-74
2022/10/25 06:50:40;;;;;;;12.43;3.78;;;12.70;99.90;;;;;;5071859;28;20039;-74
2022/10/25 06:53:06;;;;;;;11.43;4.15;;;12.70;99.90;;;;;;5057386;28;20025;-75
2022/10/25 06:55:32;;;;;;;11.13;3.88;;;12.70;99.90;;;;;;5054789;28;20518;-74
2022/10/25 06:57:58;;;;;;;10.60;4.88;;;12.60;99.90;;;;;;5059460;28;20029;-73
2022/10/25 07:00:24;;;;;;;9.20;4.40;;;12.60;99.90;;;;;;5061605;28;20051;-73
2022/10/25 07:02:57;;;;;;;106.30;34.42;;;12.60;99.90;;;;;;5056620;28;20028;-73
2022/10/25 07:05:24;;;;;;;29.77;13.05;;;12.60;99.90;;;;;;5061334;28;20032;-73
2022/10/25 07:07:50;;;;;;;21.95;8.50;;;12.70;99.90;;;;;;5059479;28;20033;-74
2022/10/25 07:10:16;;;;;;;14.55;6.60;;;12.70;99.90;;;;;;5065202;28;20029;-74
2022/10/25 07:12:41;;;;;;;11.93;5.85;;;12.80;99.90;;;;;;5062217;28;20039;-74
2022/10/25 07:15:08;;;;;;;11.75;5.38;;;12.80;99.90;;;;;;5063559;28;20099;-73
2022/10/25 07:17:33;;;;;;;20.58;6.55;;;12.80;99.90;;;;;;5059463;28;20037;-73
2022/10/25 07:19:59;;;;;;;63.55;31.17;;;12.90;99.90;;;;;;5054639;28;20509;-74
2022/10/25 07:22:25;;;;;;;18.98;8.10;;;13.00;99.90;;;;;;5059322;28;20108;-73
2022/10/25 07:24:50;;;;;;;96.28;20.05;;;13.00;99.90;;;;;;5061738;28;20083;-75
2022/10/25 07:27:16;;;;;;;33.78;10.48;;;13.00;99.90;;;;;;5061563;28;20052;-73
2022/10/25 07:29:42;;;;;;;17.35;6.20;;;13.10;99.90;;;;;;5066383;28;20418;-74
2022/10/25 07:32:09;;;;;;;14.10;5.93;;;13.10;99.90;;;;;;5065042;28;20036;-73
2022/10/25 07:34:34;;;;;;;15.18;6.47;;;13.10;99.90;;;;;;5060619;28;20033;-74
2022/10/25 07:37:00;;;;;;;12.20;5.22;;;13.20;99.90;;;;;;5057510;28;20025;-74
2022/10/25 07:39:26;;;;;;;13.27;6.55;;;13.20;99.90;;;;;;5060135;28;20028;-74
2022/10/25 07:41:52;;;;;;;12.57;6.18;;;13.30;99.90;;;;;;5057498;28;20025;-73
2022/10/25 07:44:19;;;;;;;15.15;6.15;;;13.30;99.90;;;;;;5065668;28;20059;-75
2022/10/25 07:46:44;;;;;;;13.88;5.50;;;13.40;99.90;;;;;;5070437;28;20024;-75
2022/10/25 07:49:10;;;;;;;16.38;6.78;;;13.50;99.90;;;;;;5086675;28;20567;-75
2022/10/25 07:51:36;;;;;;;12.73;6.28;;;13.60;99.90;;;;;;5066974;28;20135;-75
2022/10/25 07:54:02;;;;;;;15.85;7.38;;;13.60;99.90;;;;;;5065251;28;20033;-74
2022/10/25 07:56:29;;;;;;;12.35;7.13;;;13.60;99.90;;;;;;5063876;28;20477;-74
2022/10/25 07:58:54;;;;;;;16.05;7.75;;;13.70;99.90;;;;;;5086420;28;20094;-74
2022/10/25 08:01:23;;;;;;;16.08;7.47;;;13.80;99.90;;;;;;5068050;28;20028;-74
2022/10/25 08:03:50;;;;;;;16.10;8.38;;;13.90;99.90;;;;;;5070661;28;20361;-74
2022/10/25 08:06:16;;;;;;;14.55;8.30;;;13.90;99.90;;;;;;5060666;28;20115;-74
2022/10/25 08:08:42;;;;;;;14.73;7.80;;;14.00;99.90;;;;;;5065748;28;20650;-74
2022/10/25 08:11:08;;;;;;;17.60;8.40;;;14.00;99.90;;;;;;5063976;28;20048;-74
2022/10/25 08:13:36;;;;;;;19.95;9.23;;;14.10;99.90;;;;;;5066575;28;20473;-75
2022/10/25 08:16:02;;;;;;;19.45;9.48;;;14.10;99.90;;;;;;5068962;28;20142;-74
2022/10/25 08:18:28;;;;;;;24.63;10.73;;;14.20;99.90;;;;;;5070577;28;20051;-74
2022/10/25 08:20:53;;;;;;;20.63;12.02;;;14.30;99.90;;;;;;5067089;28;20021;-74
2022/10/25 08:23:19;;;;;;;17.88;11.80;;;14.30;99.90;;;;;;5066626;28;20442;-74
2022/10/25 08:25:45;;;;;;;21.02;12.55;;;14.30;99.90;;;;;;5065429;28;20028;-74
2022/10/25 08:28:11;;;;;;;20.30;12.70;;;14.40;99.90;;;;;;5067749;28;20032;-74
2022/10/25 08:30:38;;;;;;;20.85;11.73;;;14.40;99.90;;;;;;5055062;28;20025;-74
2022/10/25 08:33:05;;;;;;;17.35;12.73;;;14.40;99.90;;;;;;5062408;28;20819;-74
2022/10/25 08:35:31;;;;;;;17.38;12.65;;;14.50;99.90;;;;;;5060461;28;20445;-74
2022/10/25 08:37:59;;;;;;;15.55;12.50;;;14.50;99.90;;;;;;5052766;28;20057;-74
2022/10/25 08:40:49;;;;;;;27.05;14.57;;;14.60;99.90;;;;;;5063145;28;20044;-74
2022/10/25 08:43:43;;;;;;;28.17;13.95;;;14.60;99.90;;;;;;5059852;28;20032;-74
2022/10/25 08:46:13;;;;;;;20.13;13.20;;;14.50;99.90;;;;;;5066783;28;20024;-74
2022/10/25 08:48:45;;;;;;;23.70;14.18;;;14.50;99.90;;;;;;5071419;28;20108;-74
2022/10/25 08:51:26;;;;;;;18.48;13.80;;;14.50;99.90;;;;;;5060818;28;22670;-74
2022/10/25 08:53:55;;;;;;;20.17;14.23;;;14.40;99.90;;;;;;5085434;28;20503;-74
2022/10/25 08:56:23;;;;;;;21.75;14.35;;;14.40;99.90;;;;;;5061611;28;20028;-74
2022/10/25 08:58:59;;;;;;;20.88;13.98;;;14.30;99.90;;;;;;5068794;28;20060;-73
2022/10/25 09:01:29;;;;;;;23.45;13.60;;;14.40;99.90;;;;;;5069739;28;20028;-73
2022/10/25 09:03:57;;;;;;;21.27;13.98;;;14.40;99.90;;;;;;5069987;28;20031;-75
2022/10/25 09:06:34;;;;;;;18.83;12.80;;;14.40;99.90;;;;;;5066900;28;20028;-75
2022/10/25 09:09:28;;;;;;;16.90;12.30;;;14.40;99.90;;;;;;5066169;28;20040;-74
2022/10/25 09:12:05;;;;;;;20.58;12.35;;;14.40;99.90;;;;;;5064959;28;20028;-74
2022/10/25 09:14:51;;;;;;;25.50;13.00;;;14.50;99.90;;;;;;5068806;28;20024;-75
2022/10/25 09:17:52;;;;;;;18.40;12.45;;;14.60;99.90;;;;;;5062672;28;20099;-74
2022/10/25 09:20:31;;;;;;;20.65;12.52;;;14.70;99.90;;;;;;5055178;28;20454;-74
2022/10/25 09:22:59;;;;;;;20.92;12.10;;;14.70;99.90;;;;;;5060747;28;20508;-73
2022/10/25 09:25:49;;;;;;;19.55;12.25;;;14.70;99.90;;;;;;5065837;28;20036;-75
2022/10/25 09:28:30;;;;;;;18.70;13.02;;;14.70;99.90;;;;;;5058072;28;20035;-74
2022/10/25 09:30:58;;;;;;;21.80;13.27;;;14.80;99.90;;;;;;5062888;28;20485;-75
2022/10/25 09:33:29;;;;;;;19.95;12.40;;;14.80;99.90;;;;;;5066024;28;20028;-75
2022/10/25 09:35:57;;;;;;;18.08;12.68;;;14.90;99.90;;;;;;5064742;28;20028;-74
2022/10/25 09:38:44;;;;;;;23.33;14.73;;;14.90;99.90;;;;;;5063679;28;20045;-73
2022/10/25 09:41:26;;;;;;;22.67;13.27;;;14.80;99.90;;;;;;5049944;28;20455;-73
2022/10/25 09:44:00;;;;;;;18.17;12.65;;;14.80;99.90;;;;;;5065140;28;20028;-75
2022/10/25 09:46:36;;;;;;;17.42;12.80;;;14.80;99.90;;;;;;5067155;28;20480;-74
2022/10/25 09:49:14;;;;;;;18.13;12.38;;;14.80;99.90;;;;;;5057822;28;20392;-74
2022/10/25 09:52:09;;;;;;;17.35;11.82;;;14.90;99.90;;;;;;5066833;28;20566;-75
2022/10/25 09:54:44;;;;;;;17.17;12.40;;;15.00;99.90;;;;;;5069372;28;20032;-74
2022/10/25 09:57:10;;;;;;;16.88;11.57;;;14.90;99.90;;;;;;5066236;28;20533;-76
2022/10/25 09:59:36;;;;;;;17.10;11.10;;;14.80;99.90;;;;;;5062495;28;20037;-74
2022/10/25 10:02:01;;;;;;;16.63;11.50;;;14.80;99.90;;;;;;5063380;28;20033;-74
2022/10/25 10:04:35;;;;;;;18.55;12.00;;;14.80;99.90;;;;;;5062585;28;20089;-74
2022/10/25 10:07:19;;;;;;;15.30;11.40;;;14.80;99.90;;;;;;5062349;28;20394;-74
2022/10/25 10:09:45;;;;;;;19.17;12.50;;;14.80;99.90;;;;;;5062267;28;20025;-75
2022/10/25 10:12:21;;;;;;;17.73;12.27;;;14.80;99.90;;;;;;5067983;28;20025;-74
2022/10/25 10:14:57;;;;;;;18.35;11.18;;;14.80;99.90;;;;;;5072039;28;20074;-74
2022/10/25 10:17:24;;;;;;;18.58;10.27;;;14.80;99.90;;;;;;5072943;28;20033;-75
2022/10/25 10:20:09;;;;;;;19.63;10.73;;;14.90;99.90;;;;;;5060739;28;20037;-75
2022/10/25 10:22:42;;;;;;;16.08;10.63;;;15.00;99.90;;;;;;5064836;28;20032;-75
2022/10/25 10:25:15;;;;;;;18.20;10.77;;;15.10;99.90;;;;;;5071729;28;20045;-75
2022/10/25 10:27:41;;;;;;;18.63;10.13;;;15.30;99.90;;;;;;5073805;28;20029;-75
2022/10/25 10:30:08;;;;;;;11.00;9.48;;;15.40;99.90;;;;;;5072530;28;20032;-74
2022/10/25 10:32:39;;;;;;;17.98;10.20;;;15.40;99.90;;;;;;5066844;28;20051;-75
2022/10/25 10:35:06;;;;;;;13.95;10.00;;;15.60;99.90;;;;;;5072471;28;20067;-75
2022/10/25 10:37:33;;;;;;;14.48;8.52;;;15.70;99.90;;;;;;5073249;28;20095;-73
2022/10/25 10:40:05;;;;;;;17.23;9.60;;;15.70;99.90;;;;;;5068584;28;20125;-73
2022/10/25 10:42:35;;;;;;;15.68;9.73;;;15.80;99.90;;;;;;5068513;28;20029;-73
2022/10/25 10:45:11;;;;;;;17.88;8.93;;;15.80;99.90;;;;;;5073226;28;20040;-74
2022/10/25 10:47:48;;;;;;;12.80;8.90;;;15.90;99.90;;;;;;5072890;28;20031;-74
2022/10/25 10:50:24;;;;;;;15.02;8.43;;;16.10;99.90;;;;;;5072169;28;20032;-74
2022/10/25 10:53:04;;;;;;;12.07;7.90;;;16.20;99.90;;;;;;5060880;28;20021;-74
2022/10/25 10:55:31;;;;;;;13.68;7.47;;;16.30;99.90;;;;;;5065103;28;20119;-73
2022/10/25 10:58:23;;;;;;;10.35;6.85;;;16.40;99.90;;;;;;5072633;28;20024;-73
2022/10/25 11:00:56;;;;;;;12.15;7.50;;;16.50;99.90;;;;;;5073553;28;20094;-74
2022/10/25 11:03:57;;;;;;;13.15;7.63;;;16.70;99.90;;;;;;5072206;28;20414;-74
2022/10/25 11:06:25;;;;;;;10.00;6.10;;;16.80;99.90;;;;;;5048266;28;20111;-74
2022/10/25 11:09:11;;;;;;;13.88;6.85;;;16.90;99.90;;;;;;5068225;28;20047;-74
2022/10/25 11:11:37;;;;;;;10.07;6.63;;;16.90;99.90;;;;;;5052964;28;20045;-74
2022/10/25 11:14:14;;;;;;;9.45;6.28;;;17.10;99.90;;;;;;5065711;28;20035;-74
2022/10/25 11:17:15;;;;;;;13.55;6.55;;;17.10;99.90;;;;;;5069198;28;20082;-74
2022/10/25 11:19:59;;;;;;;10.48;6.13;;;17.30;99.90;;;;;;5072157;28;20037;-74
2022/10/25 11:22:51;;;;;;;11.95;5.20;;;17.50;99.90;;;;;;5063728;28;20033;-74
2022/10/25 11:25:32;;;;;;;11.65;4.93;;;17.50;99.90;;;;;;5067489;28;20040;-74
2022/10/25 11:28:40;;;;;;;7.53;3.88;;;17.60;99.90;;;;;;5053196;28;20028;-73
2022/10/25 11:31:56;;;;;;;9.70;4.13;;;17.70;99.90;;;;;;5061830;28;20032;-75
2022/10/25 11:34:50;;;;;;;9.57;5.38;;;17.80;99.90;;;;;;5059471;28;20054;-74
2022/10/25 11:37:23;;;;;;;6.38;5.07;;;17.80;99.90;;;;;;5066824;28;20043;-74
2022/10/25 11:40:13;;;;;;;8.98;4.53;;;17.70;99.90;;;;;;5068023;28;20043;-74
2022/10/25 11:42:57;;;;;;;9.60;4.65;;;17.80;99.90;;;;;;5057360;28;20029;-73
2022/10/25 11:45:40;;;;;;;7.53;3.97;;;17.80;99.90;;;;;;5052297;28;20028;-73
2022/10/25 11:48:34;;;;;;;6.03;3.50;;;17.80;99.90;;;;;;5062867;28;20062;-74
2022/10/25 11:51:05;;;;;;;5.00;3.25;;;17.60;99.90;;;;;;5069909;28;20480;-74
2022/10/25 11:53:49;;;;;;;6.68;3.47;;;17.50;99.90;;;;;;5050512;28;20033;-74
2022/10/25 11:56:35;;;;;;;7.70;4.10;;;17.50;99.90;;;;;;5066296;28;20039;-74
2022/10/25 11:59:14;;;;;;;8.18;3.45;;;17.50;99.90;;;;;;5062639;28;20040;-74
2022/10/25 12:02:07;;;;;;;9.35;4.53;;;17.40;99.90;;;;;;5070936;28;20024;-74
2022/10/25 12:04:44;;;;;;;10.73;3.75;;;17.50;99.90;;;;;;5060889;28;20036;-74
2022/10/25 12:07:46;;;;;;;9.00;3.05;;;17.40;99.90;;;;;;5070090;28;20123;-74
2022/10/25 12:10:37;;;;;;;8.73;2.95;;;17.50;99.90;;;;;;5061990;28;20052;-74
2022/10/25 12:13:35;;;;;;;8.52;2.88;;;17.60;99.90;;;;;;5057377;28;20127;-74
2022/10/25 12:16:03;;;;;;;6.93;2.53;;;17.80;99.90;;;;;;5061596;28;20087;-75
2022/10/25 12:18:35;;;;;;;9.38;2.75;;;17.90;99.90;;;;;;5067256;28;20040;-74
2022/10/25 12:21:01;;;;;;;;;;;17.90;99.90;;;;;;5067760;28;20043;-74
2022/10/25 12:23:41;;;;;;;9.98;3.63;;;18.00;99.90;;;;;;5066005;28;19928;-74
2022/10/25 12:26:29;;;;;;;6.20;3.50;;;17.90;99.90;;;;;;5079275;28;20078;-74
2022/10/25 12:28:58;;;;;;;6.47;3.33;;;17.70;99.90;;;;;;5068384;28;20234;-74
2022/10/25 12:31:30;;;;;;;9.80;3.95;;;17.60;99.90;;;;;;5066452;28;20032;-74
2022/10/25 12:34:14;;;;;;;;;;;17.50;99.90;;;;;;5062282;28;20029;-74
2022/10/25 12:36:43;;;;;;;8.75;4.03;;;17.50;99.90;;;;;;5062457;28;19927;-74
2022/10/25 12:39:22;;;;;;;8.80;4.18;;;17.50;99.90;;;;;;5063611;28;20051;-74
2022/10/25 12:41:54;;;;;;;7.05;4.03;;;17.50;99.90;;;;;;5064608;28;20060;-74
2022/10/25 12:44:41;;;;;;;10.43;5.35;;;17.30;99.90;;;;;;5062950;28;20032;-75
2022/10/25 12:47:07;;;;;;;9.57;4.35;;;17.20;99.90;;;;;;5070038;28;20442;-74
2022/10/25 12:49:56;;;;;;;9.65;3.70;;;17.30;99.90;;;;;;5060211;28;20587;-74
2022/10/25 12:52:35;;;;;;;8.30;3.25;;;17.30;99.90;;;;;;5060201;28;20561;-75
2022/10/25 12:55:27;;;;;;;6.30;2.97;;;17.50;99.90;;;;;;5066677;28;20077;-75
2022/10/25 12:57:59;;;;;;;8.98;3.00;;;17.70;99.90;;;;;;5069576;28;20068;-74
2022/10/25 13:00:31;;;;;;;11.85;3.33;;;17.70;99.90;;;;;;5068177;28;20036;-74
2022/10/25 13:03:52;;;;;;;6.55;1.98;;;17.80;99.90;;;;;;5064604;28;20029;-76